createdAt,value
2018-07-21T00:00:21.357Z,1.47
2018-07-21T00:03:29.892Z,1.37
2018-07-21T00:06:39.048Z,1.57
2018-07-21T00:09:50.199Z,1.60
2018-07-21T00:12:59.248Z,1.40
2018-07-21T00:16:06.628Z,1.40
2018-07-21T00:19:16.729Z,1.50
2018-07-21T00:22:26.400Z,1.40
2018-07-21T00:25:36.897Z,1.60
2018-07-21T00:28:45.445Z,1.50
2018-07-21T00:31:52.726Z,1.50
2018-07-21T00:35:02.432Z,1.50
2018-07-21T00:38:11.555Z,1.50
2018-07-21T00:41:20.505Z,1.33
2018-07-21T00:44:29.131Z,1.70
2018-07-21T00:47:38.508Z,1.60
2018-07-21T00:50:47.664Z,1.30
2018-07-21T00:53:57.551Z,1.23
2018-07-21T00:57:07.629Z,1.37
2018-07-21T01:00:17.535Z,1.37
2018-07-21T01:03:26.804Z,1.40
2018-07-21T01:06:36.265Z,1.60
2018-07-21T01:09:45.529Z,1.40
2018-07-21T01:12:54.055Z,1.43
2018-07-21T01:16:03.502Z,1.30
2018-07-21T01:19:13.732Z,1.57
2018-07-21T01:22:23.651Z,1.30
2018-07-21T01:25:33.712Z,1.40
2018-07-21T01:28:42.441Z,1.40
2018-07-21T01:31:51.718Z,1.30
2018-07-21T01:35:00.342Z,1.40
2018-07-21T01:38:09.756Z,1.40
2018-07-21T01:41:19.774Z,1.50
2018-07-21T01:44:20.380Z,1.60
2018-07-21T01:47:28.722Z,1.40
2018-07-21T01:50:38.820Z,1.30
2018-07-21T01:53:47.238Z,1.30
2018-07-21T01:56:56.091Z,1.50
2018-07-21T02:00:06.646Z,1.40
2018-07-21T02:03:15.656Z,1.40
2018-07-21T02:06:23.948Z,1.60
2018-07-21T02:09:34.622Z,1.30
2018-07-21T02:12:43.582Z,1.30
2018-07-21T02:15:53.326Z,1.60
2018-07-21T02:19:01.750Z,1.30
2018-07-21T02:22:10.297Z,1.40
2018-07-21T02:25:18.673Z,1.30
2018-07-21T02:28:29.004Z,1.53
2018-07-21T02:31:38.584Z,1.53
2018-07-21T02:34:48.266Z,1.10
2018-07-21T02:37:58.356Z,1.50
2018-07-21T02:41:05.950Z,1.40
2018-07-21T02:44:15.005Z,1.27
2018-07-21T02:47:24.976Z,1.37
2018-07-21T02:50:33.083Z,1.30
2018-07-21T02:53:41.300Z,1.20
2018-07-21T02:56:51.433Z,1.30
2018-07-21T02:59:58.620Z,1.33
2018-07-21T03:03:06.809Z,1.40
2018-07-21T03:06:16.706Z,1.33
2018-07-21T03:09:27.630Z,1.40
2018-07-21T03:12:37.376Z,1.10
2018-07-21T03:15:47.154Z,1.53
2018-07-21T03:18:56.032Z,1.30
2018-07-21T03:22:06.017Z,1.50
2018-07-21T03:25:16.858Z,1.23
2018-07-21T03:28:27.166Z,1.30
2018-07-21T03:31:37.118Z,1.10
2018-07-21T03:34:46.306Z,1.47
2018-07-21T03:37:54.950Z,1.30
2018-07-21T03:41:04.419Z,1.43
2018-07-21T03:44:13.360Z,1.50
2018-07-21T03:47:21.684Z,1.40
2018-07-21T03:50:31.153Z,1.57
2018-07-21T03:53:40.934Z,1.60
2018-07-21T03:56:50.307Z,1.30
2018-07-21T04:00:00.194Z,1.27
2018-07-21T04:03:09.244Z,1.40
2018-07-21T04:06:18.506Z,1.30
2018-07-21T04:09:27.558Z,1.17
2018-07-21T04:12:35.566Z,1.10
2018-07-21T04:15:43.994Z,1.10
2018-07-21T04:18:43.754Z,1.47
2018-07-21T05:13:04.729Z,1.60
2018-07-21T05:16:13.102Z,1.13
2018-07-21T05:19:22.748Z,1.10
2018-07-21T05:22:32.314Z,1.40
2018-07-21T05:25:41.656Z,1.30
2018-07-21T05:28:50.208Z,1.20
2018-07-21T05:31:59.822Z,1.30
2018-07-21T05:35:08.298Z,1.27
2018-07-21T05:38:17.154Z,1.50
2018-07-21T05:41:25.582Z,1.30
2018-07-21T05:47:49.482Z,1.30
2018-07-21T05:50:56.873Z,1.40
2018-07-21T05:54:05.926Z,1.30
2018-07-21T05:57:15.118Z,1.30
2018-07-21T06:00:26.787Z,1.30
2018-07-21T06:03:36.674Z,1.13
2018-07-21T06:06:44.894Z,1.50
2018-07-21T06:09:53.300Z,1.27
2018-07-21T06:13:01.117Z,1.30
2018-07-21T06:16:10.573Z,1.10
2018-07-21T06:19:23.043Z,1.30
2018-07-21T06:22:32.558Z,1.20
2018-07-21T06:25:41.502Z,1.10
2018-07-21T06:28:49.736Z,1.43
2018-07-21T06:31:59.204Z,1.40
2018-07-21T06:35:07.926Z,1.60
2018-07-21T06:38:16.039Z,1.30
2018-07-21T06:41:24.677Z,1.30
2018-07-21T06:44:34.197Z,1.27
2018-07-21T06:47:41.971Z,1.40
2018-07-21T06:50:51.936Z,1.30
2018-07-21T06:54:01.075Z,1.50
2018-07-21T06:57:10.773Z,1.30
2018-07-21T07:00:20.027Z,1.20
2018-07-21T07:03:30.754Z,1.50
2018-07-21T07:06:38.344Z,1.20
2018-07-21T07:09:48.416Z,1.07
2018-07-21T07:12:57.386Z,1.30
2018-07-21T07:16:07.181Z,1.27
2018-07-21T07:19:15.183Z,1.23
2018-07-21T07:22:25.352Z,1.40
2018-07-21T07:25:35.152Z,1.60
2018-07-21T07:28:45.527Z,1.17
2018-07-21T07:31:54.095Z,1.60
2018-07-21T07:35:02.348Z,1.30
2018-07-21T07:38:12.468Z,1.53
2018-07-21T07:41:21.021Z,1.43
2018-07-21T07:44:29.899Z,1.30
2018-07-21T07:47:39.159Z,1.30
2018-07-21T07:50:47.999Z,1.30
2018-07-21T07:53:57.635Z,1.37
2018-07-21T07:57:07.226Z,1.30
2018-07-21T08:00:15.780Z,1.23
2018-07-21T08:03:25.024Z,1.43
2018-07-21T08:06:33.669Z,1.30
2018-07-21T08:09:41.786Z,1.60
2018-07-21T08:12:51.052Z,1.47
2018-07-21T08:16:01.738Z,1.20
2018-07-21T08:19:09.939Z,1.70
2018-07-21T08:22:17.891Z,1.60
2018-07-21T08:25:26.865Z,1.60
2018-07-21T08:28:34.555Z,1.50
2018-07-21T08:31:43.060Z,1.40
2018-07-21T08:34:53.157Z,1.37
2018-07-21T08:38:01.699Z,1.43
2018-07-21T08:41:10.010Z,1.43
2018-07-21T08:44:19.688Z,1.40
2018-07-21T08:47:30.661Z,1.60
2018-07-21T08:50:39.957Z,1.47
2018-07-21T08:53:47.995Z,1.53
2018-07-21T08:56:57.063Z,1.20
2018-07-21T09:00:06.371Z,1.60
2018-07-21T09:03:14.957Z,1.33
2018-07-21T09:06:23.894Z,1.30
2018-07-21T09:09:42.131Z,1.43
2018-07-21T09:12:52.011Z,1.27
2018-07-21T09:16:01.365Z,1.40
2018-07-21T09:19:09.921Z,1.50
2018-07-21T09:22:18.539Z,1.53
2018-07-21T09:25:27.501Z,1.50
2018-07-21T09:28:37.705Z,1.63
2018-07-21T09:31:47.902Z,1.50
2018-07-21T09:34:56.617Z,1.50
2018-07-21T09:38:06.584Z,1.40
2018-07-21T09:41:17.123Z,1.60
2018-07-21T09:44:25.155Z,1.43
2018-07-21T09:47:35.363Z,1.60
2018-07-21T09:50:44.203Z,1.50
2018-07-21T09:53:53.789Z,1.67
2018-07-21T09:57:03.145Z,1.40
2018-07-21T10:00:12.539Z,1.60
2018-07-21T10:03:21.544Z,1.80
2018-07-21T10:06:29.773Z,1.57
2018-07-21T10:09:38.933Z,1.50
2018-07-21T10:12:47.667Z,1.67
2018-07-21T10:15:57.556Z,1.60
2018-07-21T10:19:07.235Z,1.77
2018-07-21T10:22:15.789Z,1.60
2018-07-21T10:25:28.653Z,1.80
2018-07-21T10:28:41.326Z,1.63
2018-07-21T10:31:49.641Z,1.70
2018-07-21T10:34:58.033Z,2.00
2018-07-21T10:38:08.102Z,2.20
2018-07-21T10:41:18.023Z,2.40
2018-07-21T10:44:26.927Z,2.37
2018-07-21T10:47:36.467Z,2.43
2018-07-21T10:50:45.540Z,2.40
2018-07-21T10:53:54.748Z,2.57
2018-07-21T10:57:03.921Z,2.20
2018-07-21T11:00:13.746Z,2.30
2018-07-21T11:03:23.137Z,2.40
2018-07-21T11:06:32.627Z,2.00
2018-07-21T11:09:41.265Z,2.37
2018-07-21T11:12:49.020Z,2.37
2018-07-21T11:15:58.744Z,2.33
2018-07-21T11:19:07.581Z,2.50
2018-07-21T11:22:17.684Z,2.27
2018-07-21T11:25:26.941Z,2.40
2018-07-21T11:28:35.046Z,2.40
2018-07-21T11:31:43.385Z,2.40
2018-07-21T11:34:51.382Z,2.33
2018-07-21T11:38:01.581Z,2.27
2018-07-21T11:41:11.575Z,2.70
2018-07-21T11:44:19.798Z,2.30
2018-07-21T11:47:19.035Z,2.47
2018-07-21T11:50:28.551Z,2.10
2018-07-21T11:53:37.179Z,2.40
2018-07-21T11:56:45.011Z,2.30
2018-07-21T11:59:53.673Z,2.50
2018-07-21T12:03:02.137Z,2.37
2018-07-21T12:06:10.547Z,2.40
2018-07-21T12:09:19.157Z,2.10
2018-07-21T12:12:28.745Z,2.07
2018-07-21T12:15:37.575Z,3.00
2018-07-21T12:18:47.040Z,2.87
2018-07-21T12:21:55.262Z,2.73
2018-07-21T12:25:03.263Z,2.93
2018-07-21T12:28:12.523Z,2.83
2018-07-21T12:31:20.791Z,2.90
2018-07-21T12:34:31.465Z,2.50
2018-07-21T12:37:40.619Z,2.57
2018-07-21T12:40:48.869Z,2.73
2018-07-21T12:43:57.468Z,2.80
2018-07-21T12:47:06.238Z,2.50
2018-07-21T12:50:16.369Z,2.67
2018-07-21T12:53:25.243Z,2.40
2018-07-21T12:56:34.411Z,2.67
2018-07-21T12:59:43.638Z,2.60
2018-07-21T13:02:52.999Z,2.80
2018-07-21T13:06:01.567Z,2.60
2018-07-21T13:09:11.142Z,2.60
2018-07-21T13:12:20.670Z,3.03
2018-07-21T13:15:30.119Z,2.40
2018-07-21T13:18:38.685Z,2.40
2018-07-21T13:21:48.488Z,2.63
2018-07-21T13:24:58.111Z,2.40
2018-07-21T13:28:07.716Z,2.57
2018-07-21T13:31:15.866Z,2.60
2018-07-21T13:34:25.162Z,2.50
2018-07-21T13:37:34.801Z,2.60
2018-07-21T13:40:42.601Z,2.67
2018-07-21T13:43:51.643Z,2.37
2018-07-21T13:46:58.789Z,2.50
2018-07-21T13:50:07.879Z,2.40
2018-07-21T13:53:18.133Z,2.83
2018-07-21T13:56:27.549Z,2.30
2018-07-21T13:59:36.393Z,2.50
2018-07-21T14:02:44.923Z,2.70
2018-07-21T14:05:53.557Z,2.57
2018-07-21T14:09:03.865Z,2.90
2018-07-21T14:12:13.805Z,2.67
2018-07-21T14:15:23.849Z,2.53
2018-07-21T14:18:32.371Z,2.80
2018-07-21T14:21:41.530Z,2.40
2018-07-21T14:24:51.105Z,2.70
2018-07-21T14:27:59.855Z,2.57
2018-07-21T14:31:10.489Z,2.50
2018-07-21T14:34:17.638Z,2.50
2018-07-21T14:37:25.956Z,2.50
2018-07-21T14:40:35.268Z,2.50
2018-07-21T14:43:43.594Z,2.43
2018-07-21T14:46:51.414Z,2.40
2018-07-21T14:49:58.928Z,2.40
2018-07-21T14:53:07.911Z,2.70
2018-07-21T14:56:16.306Z,2.70
2018-07-21T14:59:25.564Z,2.67
2018-07-21T15:02:35.466Z,2.80
2018-07-21T15:05:36.372Z,2.57
2018-07-21T15:08:44.676Z,2.37
2018-07-21T15:11:53.418Z,2.60
2018-07-21T15:15:02.990Z,2.80
2018-07-21T15:18:11.626Z,2.50
2018-07-21T15:21:21.199Z,2.70
2018-07-21T15:24:29.950Z,2.37
2018-07-21T15:27:39.933Z,2.40
2018-07-21T15:30:47.836Z,2.60
2018-07-21T15:33:56.990Z,2.37
2018-07-21T15:37:05.104Z,2.50
2018-07-21T15:40:15.097Z,2.70
2018-07-21T15:43:22.850Z,2.43
2018-07-21T15:46:30.872Z,2.60
2018-07-21T15:49:40.472Z,2.50
2018-07-21T15:52:48.202Z,2.57
2018-07-21T15:55:57.430Z,2.70
2018-07-21T15:59:05.652Z,2.60
2018-07-21T16:02:14.999Z,2.50
2018-07-21T16:05:24.798Z,2.50
2018-07-21T16:08:34.477Z,2.70
2018-07-21T16:11:43.110Z,2.37
2018-07-21T16:14:53.239Z,2.80
2018-07-21T16:18:02.052Z,2.30
2018-07-21T16:21:10.370Z,2.50
2018-07-21T16:24:20.468Z,2.40
2018-07-21T16:27:29.220Z,2.47
2018-07-21T16:30:38.362Z,2.63
2018-07-21T16:33:48.041Z,2.73
2018-07-21T16:36:56.774Z,2.50
2018-07-21T16:40:06.115Z,2.70
2018-07-21T16:43:16.237Z,2.50
2018-07-21T16:46:26.743Z,2.80
2018-07-21T16:49:36.221Z,2.50
2018-07-21T16:52:44.960Z,2.57
2018-07-21T16:55:54.016Z,2.33
2018-07-21T16:59:02.236Z,2.63
2018-07-21T17:02:11.556Z,2.40
2018-07-21T17:05:19.932Z,2.57
2018-07-21T17:08:27.971Z,2.57
2018-07-21T17:11:36.872Z,2.63
2018-07-21T17:14:45.973Z,2.23
2018-07-21T17:17:55.919Z,2.57
2018-07-21T17:21:04.450Z,2.40
2018-07-21T17:24:11.911Z,2.77
2018-07-21T17:27:23.173Z,2.43
2018-07-21T17:30:32.521Z,2.47
2018-07-21T17:33:40.659Z,2.30
2018-07-21T17:36:50.236Z,2.47
2018-07-21T17:39:58.389Z,2.50
2018-07-21T17:43:07.710Z,2.30
2018-07-21T17:46:17.599Z,2.47
2018-07-21T17:49:26.241Z,2.30
2018-07-21T17:52:35.194Z,2.60
2018-07-21T17:55:43.917Z,2.40
2018-07-21T17:58:52.762Z,2.40
2018-07-21T18:02:00.541Z,2.10
2018-07-21T18:05:10.038Z,2.80
2018-07-21T18:08:20.128Z,2.50
2018-07-21T18:11:31.163Z,2.50
2018-07-21T18:14:42.941Z,2.50
2018-07-21T18:17:51.883Z,2.40
2018-07-21T18:21:00.312Z,2.50
2018-07-21T18:24:09.927Z,2.43
2018-07-21T18:27:19.327Z,2.40
2018-07-21T18:30:29.134Z,2.57
2018-07-21T18:33:38.020Z,2.37
2018-07-21T18:36:46.506Z,2.57
2018-07-21T18:39:54.830Z,2.20
2018-07-21T18:43:03.899Z,2.40
2018-07-21T18:46:11.664Z,2.50
2018-07-21T18:49:21.145Z,2.77
2018-07-21T18:52:29.810Z,2.30
2018-07-21T18:55:38.479Z,2.47
2018-07-21T18:58:47.088Z,2.87
2018-07-21T19:01:55.058Z,2.40
2018-07-21T19:05:04.108Z,2.40
2018-07-21T19:08:12.405Z,2.63
2018-07-21T19:11:20.132Z,2.47
2018-07-21T19:14:29.702Z,2.40
2018-07-21T19:17:39.851Z,2.53
2018-07-21T19:20:53.965Z,2.30
2018-07-21T19:24:03.335Z,2.50
2018-07-21T19:27:16.556Z,3.00
2018-07-21T19:30:24.676Z,2.30
2018-07-21T19:33:25.789Z,2.40
2018-07-21T19:36:35.470Z,2.60
2018-07-21T19:39:43.464Z,2.13
2018-07-21T19:42:53.154Z,2.47
2018-07-21T19:46:03.245Z,2.50
2018-07-21T19:49:12.094Z,2.47
2018-07-21T19:52:20.501Z,2.30
2018-07-21T19:55:29.986Z,2.43
2018-07-21T19:58:37.381Z,2.20
2018-07-21T20:01:46.312Z,2.20
2018-07-21T20:04:55.717Z,2.60
2018-07-21T20:08:04.732Z,2.60
2018-07-21T20:11:06.066Z,2.30
2018-07-21T20:14:15.520Z,2.40
2018-07-21T20:17:23.402Z,2.30
2018-07-21T20:20:31.545Z,2.07
2018-07-21T20:23:40.152Z,2.23
2018-07-21T20:26:48.942Z,2.33
2018-07-21T20:29:59.008Z,2.53
2018-07-21T20:33:08.902Z,2.10
2018-07-21T20:36:19.204Z,2.20
2018-07-21T20:39:19.817Z,2.40
2018-07-21T20:42:28.226Z,2.10
2018-07-21T20:45:37.943Z,2.03
2018-07-21T20:48:47.165Z,2.30
2018-07-21T20:51:56.947Z,2.60
2018-07-21T20:55:04.850Z,2.37
2018-07-21T20:58:14.213Z,2.20
2018-07-21T21:01:22.584Z,2.27
2018-07-21T21:04:31.204Z,2.20
2018-07-21T21:07:39.808Z,2.30
2018-07-21T21:10:49.027Z,2.30
2018-07-21T21:13:57.285Z,2.37
2018-07-21T21:17:06.729Z,2.50
2018-07-21T21:20:13.814Z,2.07
2018-07-21T21:23:22.540Z,2.20
2018-07-21T21:26:31.616Z,2.10
2018-07-21T21:29:41.290Z,2.20
2018-07-21T21:32:50.172Z,2.20
2018-07-21T21:35:58.271Z,2.30
2018-07-21T21:39:07.192Z,2.37
2018-07-21T21:42:15.718Z,2.10
2018-07-21T21:45:24.694Z,2.30
2018-07-21T21:48:32.895Z,2.20
2018-07-21T21:51:41.732Z,2.13
2018-07-21T21:54:51.519Z,2.20
2018-07-21T21:58:00.906Z,2.00
2018-07-21T22:01:29.474Z,2.00
2018-07-21T22:04:29.091Z,2.17
2018-07-21T22:07:36.894Z,2.30
2018-07-21T22:10:45.644Z,2.30
2018-07-21T22:13:55.432Z,2.20
2018-07-21T22:17:04.133Z,2.00
2018-07-21T22:20:13.585Z,2.23
2018-07-21T22:23:22.488Z,1.93
2018-07-21T22:26:33.216Z,2.20
2018-07-21T22:29:41.535Z,2.17
2018-07-21T22:32:50.272Z,1.90
2018-07-21T22:35:58.574Z,2.03
2018-07-21T22:39:07.340Z,2.00
2018-07-21T22:42:07.517Z,2.23
2018-07-21T22:45:16.137Z,2.17
2018-07-21T22:48:25.502Z,2.13
2018-07-21T22:51:34.141Z,1.80
2018-07-21T22:54:42.331Z,2.23
2018-07-21T22:57:50.647Z,2.10
2018-07-21T23:01:00.569Z,1.70
2018-07-21T23:04:09.094Z,2.00
2018-07-21T23:07:17.736Z,2.03
2018-07-21T23:10:27.403Z,2.20
2018-07-21T23:13:36.149Z,1.83
2018-07-21T23:16:45.130Z,1.70
2018-07-21T23:19:54.576Z,1.80
2018-07-21T23:23:05.540Z,2.00
2018-07-21T23:26:14.134Z,2.00
2018-07-21T23:29:23.600Z,1.93
2018-07-21T23:32:31.866Z,2.10
2018-07-21T23:35:41.705Z,2.10
2018-07-21T23:38:50.186Z,2.20
2018-07-21T23:41:59.160Z,2.30
2018-07-21T23:45:08.010Z,2.03
2018-07-21T23:48:15.826Z,1.87
2018-07-21T23:51:23.624Z,1.80
2018-07-21T23:54:32.452Z,1.80
2018-07-21T23:57:41.937Z,2.20
